Camden, AL (36726)

1:29 PM CDT on August 28, 2015 (GMT -0500)
Greenville Municipal | | Change Station
CLOSE
Current Station
Airport
Location: Greenville,
Elevation: 449 ft
Nearby Weather Stations

Elev 449 ft 31.85 °N, 86.61 °W | Updated 33 minutes ago

Clear
Clear
89 °F
Feels Like 94 °F
N
5
Wind Variable Wind from Variable

Today
High -- | Low -- °F
--% Chance of Precip.
Yesterday
High -- | Low -- °F
Precip. -- in
6:21 AM 7:18 PM
Waxing Gibbous, 98% visible
Pressure 30.01 in
Visibility -9999.0 miles
Clouds Few 3700 ft
Heat Index 94 °F
Dew Point 69 °F
Humidity 52%
Rainfall 0.00 in
Snow Depth Not available.
UV 11 out of 12
Pollen 8.70 out of 12
Air Quality Not available.
Flu Activity Not available.
METAR KPRN 281756Z AUTO VRB04KT FEW037 32/21 A3002 RMK AO2 SLP161 T03170206 10317 20206 58010 $
Pressure 30.01 in
Visibility -9999.0 miles
Clouds Few 3700 ft
Heat Index 94 °F
Dew Point 69 °F
Humidity 52%
Rainfall 0.00 in
Snow Depth Not available.
UV 11 out of 12
Pollen 8.70 out of 12
Air Quality Not available.
Flu Activity Not available.
METAR KPRN 281756Z AUTO VRB04KT FEW037 32/21 A3002 RMK AO2 SLP161 T03170206 10317 20206 58010 $

10-Day Weather Forecast

×

Almanac

Astronomy

Aug. 28, 2015 Rise Set
Actual Time
Civil Twilight
Nautical Twilight
Astronomical Twilight
Moon
Length of Visible Light
Length of Day
Tomorrow will be .
, % of the Moon is Illuminated

Today's Extremes

State Highs State Lows

Community

WunderPhotos

Upload Photos

1,850,453 photos uploaded!

WunderBlogs® & News

Nearby

Air Quality

  Air Quality AQ Index Pollutant
Not available.

Snow Depth

Station Depth Elevation

Earthquake Activity

City Distance Mag. Time & Date
Minimum magnitude displayed is 2.5.

Coastal Water Temperatures

Place Temperature

Stations

Nearby Weather Stations

Station Location Temp. Windchill Dew Point Humidity Wind Precip. Elev Updated Type